地図

経路データ

SID SEASON NUMBER BASIN SUBBASIN NAME ISO_TIME NATURE LAT LON WMO_WIND WMO_PRES WMO_AGENCY TRACK_TYPE DIST2LAND LANDFALL IFLAG USA_AGENCY USA_ATCF_ID USA_LAT USA_LON USA_RECORD USA_STATUS USA_WIND USA_PRES USA_SSHS USA_R34_NE USA_R34_SE USA_R34_SW USA_R34_NW USA_R50_NE USA_R50_SE USA_R50_SW USA_R50_NW USA_R64_NE USA_R64_SE USA_R64_SW USA_R64_NW USA_POCI USA_ROCI USA_RMW USA_EYE TOKYO_LAT TOKYO_LON TOKYO_GRADE TOKYO_WIND TOKYO_PRES TOKYO_R50_DIR TOKYO_R50_LONG TOKYO_R50_SHORT TOKYO_R30_DIR TOKYO_R30_LONG TOKYO_R30_SHORT TOKYO_LAND CMA_LAT CMA_LON CMA_CAT CMA_WIND CMA_PRES HKO_LAT HKO_LON HKO_CAT HKO_WIND HKO_PRES NEWDELHI_LAT NEWDELHI_LON NEWDELHI_GRADE NEWDELHI_WIND NEWDELHI_PRES NEWDELHI_CI NEWDELHI_DP NEWDELHI_POCI REUNION_LAT REUNION_LON REUNION_TYPE REUNION_WIND REUNION_PRES REUNION_TNUM REUNION_CI REUNION_RMW REUNION_R34_NE REUNION_R34_SE REUNION_R34_SW REUNION_R34_NW REUNION_R50_NE REUNION_R50_SE REUNION_R50_SW REUNION_R50_NW REUNION_R64_NE REUNION_R64_SE REUNION_R64_SW REUNION_R64_NW BOM_LAT BOM_LON BOM_TYPE BOM_WIND BOM_PRES BOM_TNUM BOM_CI BOM_RMW BOM_R34_NE BOM_R34_SE BOM_R34_SW BOM_R34_NW BOM_R50_NE BOM_R50_SE BOM_R50_SW BOM_R50_NW BOM_R64_NE BOM_R64_SE BOM_R64_SW BOM_R64_NW BOM_ROCI BOM_POCI BOM_EYE BOM_POS_METHOD BOM_PRES_METHOD NADI_LAT NADI_LON NADI_CAT NADI_WIND NADI_PRES WELLINGTON_LAT WELLINGTON_LON WELLINGTON_WIND WELLINGTON_PRES DS824_LAT DS824_LON DS824_STAGE DS824_WIND DS824_PRES TD9636_LAT TD9636_LON TD9636_STAGE TD9636_WIND TD9636_PRES TD9635_LAT TD9635_LON TD9635_WIND TD9635_PRES TD9635_ROCI NEUMANN_LAT NEUMANN_LON NEUMANN_CLASS NEUMANN_WIND NEUMANN_PRES MLC_LAT MLC_LON MLC_CLASS MLC_WIND MLC_PRES USA_GUST BOM_GUST BOM_GUST_PER REUNION_GUST REUNION_GUST_PER USA_SEAHGT USA_SEARAD_NE USA_SEARAD_SE USA_SEARAD_SW USA_SEARAD_NW STORM_SPEED STORM_DIR
1917070S17114 1917 14 SI WA NOT_NAMED 1917-03-11 06:00:00 NR -17.3000 113.800 main 475 475 _____O________ -1 -17.3000 113.800 99 9.90000 0 0
1917070S17114 1917 14 SI WA NOT_NAMED 1917-03-11 09:00:00 NR -17.3005 113.778 main 475 475 _____P________ -1 -17.3005 113.778 99 0 251
1917070S17114 1917 14 SI WA NOT_NAMED 1917-03-11 12:00:00 NR -17.3128 113.758 main 475 475 _____P________ -1 -17.3128 113.758 99 1 210
1917070S17114 1917 14 SI WA NOT_NAMED 1917-03-11 15:00:00 NR -17.3488 113.742 main 480 471 _____P________ -1 -17.3488 113.742 99 1 221
1917070S17114 1917 14 SI WA NOT_NAMED 1917-03-11 18:00:00 NR -17.4164 113.666 main 471 468 _____P____O___ -1 -17.4204 113.732 99 -17.4000 113.400 7 2 220
1917070S17114 1917 14 SI WA NOT_NAMED 1917-03-11 21:00:00 NR -17.5117 113.597 main 468 459 _____P____P___ -1 -17.5395 113.731 99 -17.4561 113.331 7 3 207
1917070S17114 1917 14 SI WA NOT_NAMED 1917-03-12 00:00:00 NR -17.6458 113.547 main 465 446 _____P____P___ -1 -17.7178 113.740 99 -17.5497 113.289 7 3 189
1917070S17114 1917 14 SI WA NOT_NAMED 1917-03-12 03:00:00 NR -17.8429 113.533 main 446 413 _____P____P___ -1 -17.9673 113.763 99 -17.7185 113.303 7 5 174
1917070S17114 1917 14 SI WA NOT_NAMED 1917-03-12 06:00:00 NR -18.1500 113.600 main 413 370 _____O____O___ -1 -18.3000 113.800 99 9.90000 -18.0000 113.400 7 8 166
1917070S17114 1917 14 SI WA NOT_NAMED 1917-03-12 09:00:00 NR -18.5697 113.725 main 362 314 _____P____P___ -1 -18.7217 113.854 99 -18.4176 113.595 7 10 164
1917070S17114 1917 14 SI WA NOT_NAMED 1917-03-12 12:00:00 NR -19.0762 113.884 main 306 252 _____P____P___ -1 -19.2143 113.921 99 -18.9382 113.848 7 11 164
1917070S17114 1917 14 SI WA NOT_NAMED 1917-03-12 15:00:00 NR -19.6341 114.050 main 252 182 _____P____P___ -1 -19.7536 113.998 99 -19.5145 114.101 7 12 166
1917070S17114 1917 14 SI WA NOT_NAMED 1917-03-12 18:00:00 NR -20.2077 114.191 main 182 116 _____P____O___ -1 -20.3153 114.082 99 -20.1000 114.300 7 12 170
1917070S17114 1917 14 SI WA NOT_NAMED 1917-03-12 21:00:00 NR -20.7844 114.269 main 116 63 _____P____P___ -1 -20.8751 114.168 99 -20.6938 114.370 7 11 174
1917070S17114 1917 14 SI WA NOT_NAMED 1917-03-13 00:00:00 NR -21.3429 114.314 main 63 23 _____P____P___ -1 -21.4086 114.252 99 -21.2772 114.376 7 11 176
1917070S17114 1917 14 SI WA NOT_NAMED 1917-03-13 03:00:00 NR -21.8443 114.338 main 23 15 _____P____P___ -1 -21.8916 114.331 99 -21.7970 114.345 7 9 177
1917070S17114 1917 14 SI WA NOT_NAMED 1917-03-13 06:00:00 NR -22.2500 114.350 main 10 0 _____O____O___ -1 -22.3000 114.400 99 9.90000 -22.2000 114.300 7 6 0
1917070S17114 1917 14 SI WA NOT_NAMED 1917-03-13 09:00:00 NR -22.4863 114.360 main 0 0 _____P____P___ -1 -22.5504 114.442 99 -22.4221 114.278 7 4 0
1917070S17114 1917 14 SI WA NOT_NAMED 1917-03-13 12:00:00 NR -22.6305 114.363 main 0 0 _____P____P___ -1 -22.7336 114.476 99 -22.5274 114.250 7 2 173
1917070S17114 1917 14 SI WA NOT_NAMED 1917-03-13 15:00:00 NR -22.7154 114.362 main 0 0 _____P____P___ -1 -22.8618 114.502 99 -22.5690 114.222 7 1 0
1917070S17114 1917 14 SI WA NOT_NAMED 1917-03-13 18:00:00 NR -22.7735 114.362 main 0 0 _____P____O___ -1 -22.9470 114.524 99 -22.6000 114.200 7 1 0
1917070S17114 1917 14 SI WA NOT_NAMED 1917-03-13 21:00:00 NR -22.8486 114.366 main 0 0 _____P____P___ -1 -23.0013 114.542 99 -22.6959 114.189 7 1 172
1917070S17114 1917 14 SI WA NOT_NAMED 1917-03-14 00:00:00 NR -22.9147 114.372 main 0 0 _____P____P___ -1 -23.0369 114.560 99 -22.7925 114.185 7 1 171
1917070S17114 1917 14 SI WA NOT_NAMED 1917-03-14 01:00:00 NR -22.9360 114.376 main 0 0 _____P____P___ -1 -23.0466 114.566 99 -22.8254 114.185 7 1 160
1917070S17114 1917 14 SI WA NOT_NAMED 1917-03-14 03:00:00 NR -22.9793 114.384 main 0 0 _____P____P___ -1 -23.0657 114.578 99 -22.8928 114.189 7 1 0
1917070S17114 1917 14 SI WA NOT_NAMED 1917-03-14 05:00:00 NR -23.0253 114.394 main 0 0 _____P____P___ -1 -23.0872 114.592 99 -22.9633 114.195 7 1 0
1917070S17114 1917 14 SI WA NOT_NAMED 1917-03-14 06:00:00 NR -23.0500 114.400 main 0 0 _____O____O___ -1 -23.1000 114.600 99 9.90000 -23.0000 114.200 7 2 153
1917070S17114 1917 14 SI WA NOT_NAMED 1917-03-14 07:00:00 NR -23.0750 114.409 main 0 0 _____P____P___ -1 -23.1116 114.616 99 -23.0383 114.203 7 2 0
1917070S17114 1917 14 SI WA NOT_NAMED 1917-03-14 09:00:00 NR -23.1234 114.430 main 0 0 _____P____P___ -1 -23.1291 114.650 99 -23.1178 114.210 7 2 157
1917070S17114 1917 14 SI WA NOT_NAMED 1917-03-14 12:00:00 NR -23.1954 114.466 main 0 0 _____P____P___ -1 -23.1483 114.704 99 -23.2425 114.228 7 2 158
1917070S17114 1917 14 SI WA NOT_NAMED 1917-03-14 14:00:00 NR -23.2450 114.493 main 0 0 _____P____P___ -1 -23.1622 114.740 99 -23.3279 114.245 7 2 149
1917070S17114 1917 14 SI WA NOT_NAMED 1917-03-14 15:00:00 NR -23.2709 114.507 main 0 0 _____P____P___ -1 -23.1710 114.758 99 -23.3709 114.257 7 2 152
1917070S17114 1917 14 SI WA NOT_NAMED 1917-03-14 18:00:00 NR -23.3551 114.554 main 0 0 _____P____O___ -1 -23.2103 114.808 99 -23.5000 114.300 7 2 148
1917070S17114 1917 14 SI WA NOT_NAMED 1917-03-14 21:00:00 NR -23.4239 114.612 main 0 0 _____P____P___ -1 -23.2796 114.852 99 -23.5682 114.373 7 2 147
1917070S17114 1917 14 SI WA NOT_NAMED 1917-03-15 00:00:00 NR -23.5186 114.671 main 0 0 _____P____P___ -1 -23.3921 114.884 99 -23.6451 114.457 7 2 153
1917070S17114 1917 14 SI WA NOT_NAMED 1917-03-15 01:00:00 NR -23.5609 114.689 main 0 0 _____P____P___ -1 -23.4415 114.892 99 -23.6802 114.486 7 3 167
1917070S17114 1917 14 SI WA NOT_NAMED 1917-03-15 03:00:00 NR -23.6678 114.720 main 0 0 _____P____P___ -1 -23.5611 114.901 99 -23.7744 114.538 7 4 172
1917070S17114 1917 14 SI WA NOT_NAMED 1917-03-15 06:00:00 NR -23.9000 114.750 main 0 0 _____O____O___ -1 -23.8000 114.900 99 9.90000 -24.0000 114.600 7 6 176
1917070S17114 1917 14 SI WA NOT_NAMED 1917-03-15 09:00:00 NR -24.2931 114.755 main 0 0 _____P____P___ -1 -24.2077 114.868 99 -24.3784 114.641 7 9 0
1917070S17114 1917 14 SI WA NOT_NAMED 1917-03-15 12:00:00 NR -24.7726 114.738 main 0 0 _____P____P___ -1 -24.6927 114.817 99 -24.8525 114.659 7 10 183
1917070S17114 1917 14 SI WA NOT_NAMED 1917-03-15 15:00:00 NR -25.3024 114.699 main 0 0 _____P____P___ -1 -25.2296 114.751 99 -25.3753 114.648 7 11 185
1917070S17114 1917 14 SI WA NOT_NAMED 1917-03-15 18:00:00 NR -25.8464 114.636 main 0 0 _____P____O___ -1 -25.7928 114.672 99 -25.9000 114.600 7 11 187
1917070S17114 1917 14 SI WA NOT_NAMED 1917-03-15 21:00:00 NR -26.3732 114.548 main 0 0 _____P____P___ -1 -26.3569 114.583 99 -26.3894 114.513 7 10 189
1917070S17114 1917 14 SI WA NOT_NAMED 1917-03-16 00:00:00 NR -26.8744 114.449 main 0 0 _____P____P___ -1 -26.8964 114.490 99 -26.8451 114.394 7 10 191
1917070S17114 1917 14 SI WA NOT_NAMED 1917-03-16 03:00:00 NR -27.3500 114.347 main 0 0 _____P____P___ -1 -27.3859 114.394 99 -27.2782 114.253 7 9 191
1917070S17114 1917 14 SI WA NOT_NAMED 1917-03-16 06:00:00 NR -27.7800 114.260 main 0 0 _____O____O___ -1 -27.8000 114.300 99 9.90000 -27.7000 114.100 7 8 189
1917070S17114 1917 14 SI WA NOT_NAMED 1917-03-16 09:00:00 NR -28.1198 114.211 main 0 0 _____P________ -1 -28.1198 114.211 99 7 6 192
1917070S17114 1917 14 SI WA NOT_NAMED 1917-03-16 12:00:00 NR -28.3516 114.128 main 29 29 _____P________ -1 -28.3516 114.128 99 7 4 200
1917070S17114 1917 14 SI WA NOT_NAMED 1917-03-16 15:00:00 NR -28.5080 114.049 main 44 44 _____P________ -1 -28.5080 114.049 99 7 3 209
1917070S17114 1917 14 SI WA NOT_NAMED 1917-03-16 18:00:00 NR -28.6017 113.974 main 50 50 _____P________ -1 -28.6017 113.974 99 2 224
1917070S17114 1917 14 SI WA NOT_NAMED 1917-03-16 21:00:00 NR -28.6452 113.903 main 59 59 _____P________ -1 -28.6452 113.903 99 1 249
1917070S17114 1917 14 SI WA NOT_NAMED 1917-03-17 00:00:00 NR -28.6511 113.834 main 71 66 _____P________ -1 -28.6511 113.834 99 1 276
1917070S17114 1917 14 SI WA NOT_NAMED 1917-03-17 03:00:00 NR -28.6318 113.766 main 66 66 _____P________ -1 -28.6318 113.766 99 1 293
1917070S17114 1917 14 SI WA NOT_NAMED 1917-03-17 06:00:00 NR -28.6000 113.700 main 73 _____O________ -1 -28.6000 113.700 99 9.90000 1 298

IBTrACS Databaseについて

本データベースは、米国NOAAが公開する1842年以降の世界の熱帯低気圧のベストトラックデータアーカイブInternational Best Track Archive for Climate Stewardship (IBTrACS)を、ウェブで閲覧しやすい形式に変換したものです。

最終更新日:2021-10-25